Time;durP1;ratioP1;P1;durP2;ratioP2;P2;SDS_P1;SDS_P2;PMS_P1;PMS_P2;Temp;Humidity;BMP_temperature;BMP_pressure;BME280_temperature;BME280_humidity;BME280_pressure;Samples;Min_cycle;Max_cycle;Signal;HPM_P1;HPM_P2
2022/04/16 00:01:53;;;;;;;;;57.00;46.00;;;;;;;;5100228;27;45427;-71
2022/04/16 00:04:19;;;;;;;;;50.00;40.00;;;;;;;;5100981;27;45289;-69
2022/04/16 00:06:44;;;;;;;;;55.33;45.33;;;;;;;;5100575;27;45332;-73
2022/04/16 00:09:09;;;;;;;;;56.67;44.67;;;;;;;;5099241;27;45331;-72
2022/04/16 00:11:37;;;;;;;;;46.67;37.67;;;;;;;;5100802;27;45362;-73
2022/04/16 00:14:03;;;;;;;;;55.33;44.00;;;;;;;;5100678;27;45297;-74
2022/04/16 00:16:28;;;;;;;;;52.33;40.67;;;;;;;;5100248;27;45427;-75
2022/04/16 00:18:56;;;;;;;;;50.67;42.33;;;;;;;;5100430;27;45353;-74
2022/04/16 00:21:22;;;;;;;;;54.33;40.33;;;;;;;;5100403;27;45231;-75
2022/04/16 00:23:48;;;;;;;;;46.33;39.00;;;;;;;;5100436;27;45379;-72
2022/04/16 00:26:14;;;;;;;;;53.67;44.33;;;;;;;;5099521;27;45875;-71
2022/04/16 00:28:39;;;;;;;;;43.67;35.67;;;;;;;;5099723;27;45343;-74
2022/04/16 00:31:04;;;;;;;;;49.00;39.67;;;;;;;;5100427;27;45254;-72
2022/04/16 00:33:31;;;;;;;;;52.33;40.00;;;;;;;;5100155;27;45554;-72
2022/04/16 00:35:56;;;;;;;;;50.33;41.00;;;;;;;;5099979;27;47237;-73
2022/04/16 00:38:21;;;;;;;;;54.00;43.33;;;;;;;;5099988;27;45348;-73
2022/04/16 00:40:47;;;;;;;;;53.00;40.67;;;;;;;;5100085;27;45662;-74
2022/04/16 00:43:25;;;;;;;;;51.33;39.00;;;;;;;;5100185;27;45417;-74
2022/04/16 00:45:52;;;;;;;;;49.00;40.67;;;;;;;;5099854;27;46302;-72
2022/04/16 00:48:17;;;;;;;;;47.67;39.33;;;;;;;;5099829;27;45220;-73
2022/04/16 00:50:43;;;;;;;;;47.67;38.67;;;;;;;;5099896;27;45243;-75
2022/04/16 00:53:10;;;;;;;;;50.00;41.00;;;;;;;;5099107;27;45279;-70
2022/04/16 00:55:36;;;;;;;;;47.00;38.33;;;;;;;;5099340;27;45422;-73
2022/04/16 00:58:02;;;;;;;;;53.00;41.00;;;;;;;;5099667;27;45364;-75
2022/04/16 01:00:27;;;;;;;;;48.00;37.67;;;;;;;;5099115;27;45344;-76
2022/04/16 01:02:54;;;;;;;;;51.33;39.67;;;;;;;;5099137;27;45387;-72
2022/04/16 01:05:21;;;;;;;;;44.33;36.67;;;;;;;;5099608;27;46623;-72
2022/04/16 01:07:59;;;;;;;;;47.00;37.33;;;;;;;;5099544;27;45326;-77
2022/04/16 01:10:26;;;;;;;;;55.33;40.00;;;;;;;;5099535;27;45240;-75
2022/04/16 01:12:51;;;;;;;;;45.67;38.67;;;;;;;;5099668;27;45322;-75
2022/04/16 01:15:20;;;;;;;;;47.00;38.33;;;;;;;;5098992;27;47060;-71
2022/04/16 01:17:46;;;;;;;;;52.00;41.00;;;;;;;;5099533;27;45339;-75
2022/04/16 01:20:11;;;;;;;;;50.00;38.00;;;;;;;;5099266;27;45315;-77
2022/04/16 01:22:36;;;;;;;;;49.33;39.67;;;;;;;;5099641;27;45523;-72
2022/04/16 01:25:01;;;;;;;;;45.00;37.67;;;;;;;;5099312;27;46538;-77
2022/04/16 01:27:26;;;;;;;;;51.33;39.33;;;;;;;;5099493;27;45644;-77
2022/04/16 01:29:53;;;;;;;;;53.67;41.00;;;;;;;;5099446;27;45436;-76
2022/04/16 01:32:19;;;;;;;;;50.67;39.33;;;;;;;;5099449;27;45237;-78
2022/04/16 01:34:44;;;;;;;;;51.67;37.33;;;;;;;;5098898;27;46229;-73
2022/04/16 01:37:09;;;;;;;;;52.67;41.33;;;;;;;;5099262;27;45311;-73
2022/04/16 01:39:35;;;;;;;;;43.33;36.67;;;;;;;;5099276;27;45427;-73
2022/04/16 01:42:00;;;;;;;;;51.67;41.33;;;;;;;;5081332;27;45345;-74
2022/04/16 01:44:25;;;;;;;;;50.00;38.00;;;;;;;;5098713;27;47059;-73
2022/04/16 01:46:51;;;;;;;;;47.33;37.00;;;;;;;;5098903;27;45348;-74
2022/04/16 01:49:17;;;;;;;;;49.67;38.33;;;;;;;;5099019;27;45290;-74
2022/04/16 01:51:43;;;;;;;;;46.33;37.33;;;;;;;;5099277;27;45320;-74
2022/04/16 01:54:08;;;;;;;;;47.67;39.33;;;;;;;;5098512;27;45370;-73
2022/04/16 01:56:33;;;;;;;;;49.00;39.00;;;;;;;;5098683;27;45311;-74
2022/04/16 01:58:58;;;;;;;;;47.00;37.00;;;;;;;;5080135;27;45487;-74
2022/04/16 02:01:24;;;;;;;;;53.00;37.67;;;;;;;;5099236;27;45228;-73
2022/04/16 02:03:49;;;;;;;;;48.00;38.00;;;;;;;;5098636;27;45352;-74
2022/04/16 02:06:17;;;;;;;;;43.00;35.00;;;;;;;;5098910;27;45300;-73
2022/04/16 02:08:42;;;;;;;;;44.00;35.00;;;;;;;;5098704;27;45238;-74
2022/04/16 02:11:08;;;;;;;;;46.00;35.33;;;;;;;;5098530;27;45221;-73
2022/04/16 02:13:34;;;;;;;;;44.33;34.00;;;;;;;;5098089;27;46537;-74
2022/04/16 02:16:00;;;;;;;;;48.33;39.33;;;;;;;;5098423;27;45430;-74
2022/04/16 02:18:25;;;;;;;;;45.33;36.00;;;;;;;;5098655;27;45318;-74
2022/04/16 02:20:50;;;;;;;;;43.33;35.33;;;;;;;;5098674;27;45252;-74
2022/04/16 02:23:16;;;;;;;;;48.33;38.33;;;;;;;;5085894;27;45668;-74
2022/04/16 02:25:43;;;;;;;;;46.33;32.67;;;;;;;;5065339;28;45596;-74
2022/04/16 02:28:09;;;;;;;;;47.67;35.33;;;;;;;;5060940;28;45332;-74
2022/04/16 02:30:34;;;;;;;;;49.67;36.33;;;;;;;;5057649;28;45352;-74
2022/04/16 02:33:00;;;;;;;;;40.67;35.00;;;;;;;;5057441;28;46429;-74
2022/04/16 02:35:25;;;;;;;;;52.00;38.33;;;;;;;;5057446;28;45750;-74
2022/04/16 02:37:51;;;;;;;;;45.00;35.00;;;;;;;;5057821;28;45806;-74
2022/04/16 02:40:16;;;;;;;;;39.67;35.33;;;;;;;;5057830;28;45241;-74
2022/04/16 02:42:42;;;;;;;;;45.00;35.00;;;;;;;;5039343;28;46288;-74
2022/04/16 02:47:53;;;;;;;;;45.00;38.00;;;;;;;;5057492;28;45261;-74
2022/04/16 02:50:19;;;;;;;;;41.67;33.33;;;;;;;;5057516;28;45271;-74
2022/04/16 02:52:46;;;;;;;;;40.67;34.00;;;;;;;;5057502;28;45322;-74
2022/04/16 02:55:15;;;;;;;;;38.00;34.00;;;;;;;;5056999;28;45448;-74
2022/04/16 02:57:40;;;;;;;;;39.67;32.00;;;;;;;;5057195;28;45332;-74
2022/04/16 03:00:06;;;;;;;;;44.00;34.67;;;;;;;;5057223;28;45322;-74
2022/04/16 03:02:31;;;;;;;;;44.67;34.00;;;;;;;;5057164;28;46384;-74
2022/04/16 03:04:56;;;;;;;;;38.00;33.33;;;;;;;;5056280;28;45235;-74
2022/04/16 03:07:21;;;;;;;;;44.00;34.00;;;;;;;;5057137;28;45193;-74
2022/04/16 03:09:46;;;;;;;;;38.33;34.00;;;;;;;;5057524;28;45204;-74
2022/04/16 03:12:15;;;;;;;;;46.00;35.67;;;;;;;;5038767;28;46918;-74
2022/04/16 03:17:33;;;;;;;;;42.33;36.33;;;;;;;;5057007;28;45384;-74
2022/04/16 03:20:05;;;;;;;;;47.67;37.67;;;;;;;;5057148;28;45470;-74
2022/04/16 03:22:33;;;;;;;;;34.00;30.00;;;;;;;;5056629;28;45661;-74
2022/04/16 03:24:58;;;;;;;;;47.33;35.67;;;;;;;;5060352;28;45236;-74
2022/04/16 03:27:23;;;;;;;;;43.67;34.67;;;;;;;;5060506;28;45325;-74
2022/04/16 03:29:49;;;;;;;;;48.67;38.67;;;;;;;;5060531;28;45485;-74
2022/04/16 03:32:14;;;;;;;;;43.67;33.33;;;;;;;;5060352;28;46587;-74
2022/04/16 03:34:40;;;;;;;;;44.67;37.67;;;;;;;;5060216;28;45417;-74
2022/04/16 03:37:06;;;;;;;;;48.33;37.33;;;;;;;;5075871;28;45341;-74
2022/04/16 03:39:31;;;;;;;;;35.67;34.33;;;;;;;;5060616;28;45447;-74
2022/04/16 03:41:56;;;;;;;;;38.00;34.00;;;;;;;;5060164;28;46487;-75
2022/04/16 03:44:21;;;;;;;;;49.00;40.00;;;;;;;;5060397;28;45291;-74
2022/04/16 03:46:46;;;;;;;;;35.00;31.67;;;;;;;;5060181;28;45379;-74
2022/04/16 03:49:12;;;;;;;;;45.00;36.33;;;;;;;;5060532;28;45303;-74
2022/04/16 03:51:37;;;;;;;;;42.00;32.33;;;;;;;;5060217;28;45398;-74
2022/04/16 04:02:15;;;;;;;;;46.33;37.00;;;;;;;;5059492;28;47355;-74
2022/04/16 04:04:43;;;;;;;;;41.00;32.67;;;;;;;;5059996;28;45349;-74
2022/04/16 04:07:09;;;;;;;;;49.33;39.00;;;;;;;;5059846;28;45463;-74
2022/04/16 04:09:34;;;;;;;;;41.33;36.00;;;;;;;;5060216;28;45242;-74
2022/04/16 04:11:59;;;;;;;;;48.00;34.00;;;;;;;;5059721;28;45424;-74
2022/04/16 04:14:24;;;;;;;;;53.00;39.00;;;;;;;;5059005;28;45251;-74
2022/04/16 04:16:49;;;;;;;;;42.33;36.33;;;;;;;;5059721;28;45534;-74
2022/04/16 04:19:15;;;;;;;;;42.00;35.67;;;;;;;;5060066;28;45261;-74
2022/04/16 04:21:40;;;;;;;;;43.67;34.00;;;;;;;;5059674;28;46015;-74
2022/04/16 04:24:05;;;;;;;;;43.00;34.67;;;;;;;;5059657;28;45329;-74
2022/04/16 04:26:30;;;;;;;;;45.00;34.67;;;;;;;;5059665;28;45252;-74
2022/04/16 04:28:55;;;;;;;;;35.67;32.00;;;;;;;;5059887;28;45276;-74
2022/04/16 04:31:21;;;;;;;;;53.33;38.67;;;;;;;;5058593;28;46677;-74
2022/04/16 04:33:46;;;;;;;;;49.00;35.67;;;;;;;;5059458;28;45219;-74
2022/04/16 04:36:11;;;;;;;;;44.33;33.67;;;;;;;;5058669;28;45425;-73
2022/04/16 04:38:36;;;;;;;;;39.33;34.00;;;;;;;;5059426;28;45202;-74
2022/04/16 04:41:04;;;;;;;;;47.67;36.00;;;;;;;;5059330;28;45392;-75
2022/04/16 04:43:29;;;;;;;;;46.67;36.67;;;;;;;;5059219;28;45511;-76
2022/04/16 04:45:54;;;;;;;;;41.33;34.33;;;;;;;;5059318;28;45206;-74
2022/04/16 04:48:19;;;;;;;;;42.33;35.00;;;;;;;;5059706;28;45434;-75
2022/04/16 04:50:45;;;;;;;;;44.67;36.67;;;;;;;;5058638;28;47007;-74
2022/04/16 04:53:10;;;;;;;;;41.00;32.33;;;;;;;;5059382;28;45338;-75
2022/04/16 04:55:35;;;;;;;;;42.67;35.67;;;;;;;;5059016;28;45195;-74
2022/04/16 04:58:00;;;;;;;;;41.33;35.33;;;;;;;;5058713;28;45428;-78
2022/04/16 05:00:26;;;;;;;;;38.67;31.67;;;;;;;;5057865;28;46590;-80
2022/04/16 05:02:51;;;;;;;;;42.67;33.67;;;;;;;;5058983;28;45389;-76
2022/04/16 05:05:17;;;;;;;;;42.33;35.33;;;;;;;;5059038;28;45262;-78
2022/04/16 05:07:42;;;;;;;;;46.33;36.33;;;;;;;;5059185;28;45431;-77
2022/04/16 05:10:08;;;;;;;;;49.67;35.00;;;;;;;;5058777;28;46371;-78
2022/04/16 05:12:33;;;;;;;;;47.00;37.67;;;;;;;;5041640;28;46079;-77
2022/04/16 05:14:58;;;;;;;;;46.33;35.67;;;;;;;;5059042;28;45358;-77
2022/04/16 05:17:24;;;;;;;;;46.67;37.67;;;;;;;;5058861;28;45238;-77
2022/04/16 05:19:49;;;;;;;;;46.00;38.00;;;;;;;;5058714;28;46644;-78
2022/04/16 05:22:14;;;;;;;;;51.00;39.33;;;;;;;;5058832;28;45296;-79
2022/04/16 05:24:39;;;;;;;;;41.33;34.33;;;;;;;;5059066;28;45873;-77
2022/04/16 05:27:05;;;;;;;;;50.33;38.00;;;;;;;;5058946;28;45310;-77
2022/04/16 05:29:48;;;;;;;;;48.33;38.33;;;;;;;;5058405;28;45550;-78
2022/04/16 05:32:15;;;;;;;;;37.67;33.00;;;;;;;;5058336;28;45424;-78
2022/04/16 05:34:40;;;;;;;;;42.33;36.33;;;;;;;;5058490;28;45698;-77
2022/04/16 05:37:06;;;;;;;;;42.00;35.67;;;;;;;;5058598;28;45224;-77
2022/04/16 05:39:31;;;;;;;;;45.00;39.00;;;;;;;;5058214;28;45368;-79
2022/04/16 05:41:56;;;;;;;;;46.00;35.00;;;;;;;;5074161;28;45166;-78
2022/04/16 05:44:21;;;;;;;;;42.00;33.33;;;;;;;;5058399;28;45280;-78
2022/04/16 05:46:46;;;;;;;;;39.33;33.33;;;;;;;;5057156;28;45190;-78
2022/04/16 05:49:12;;;;;;;;;48.33;37.33;;;;;;;;5058338;28;45278;-78
2022/04/16 05:51:37;;;;;;;;;48.33;37.33;;;;;;;;5057759;28;45562;-78
2022/04/16 05:54:03;;;;;;;;;38.67;35.00;;;;;;;;5057535;28;45489;-76
2022/04/16 05:56:29;;;;;;;;;42.67;35.00;;;;;;;;5057947;28;45360;-76
2022/04/16 05:58:54;;;;;;;;;47.67;36.33;;;;;;;;5057211;28;45520;-76
2022/04/16 06:01:19;;;;;;;;;43.33;37.67;;;;;;;;5057306;28;45486;-77
2022/04/16 06:03:45;;;;;;;;;40.33;35.67;;;;;;;;5057618;28;45390;-75
2022/04/16 06:06:10;;;;;;;;;42.00;34.00;;;;;;;;5058374;28;45348;-75
2022/04/16 06:08:36;;;;;;;;;51.00;41.00;;;;;;;;5057503;28;45400;-76
2022/04/16 06:11:01;;;;;;;;;44.33;39.00;;;;;;;;5057888;28;45448;-74
2022/04/16 06:13:26;;;;;;;;;49.00;39.00;;;;;;;;5057868;28;45392;-76
2022/04/16 06:15:52;;;;;;;;;43.00;35.67;;;;;;;;5057967;28;45428;-75
2022/04/16 06:18:17;;;;;;;;;46.00;36.00;;;;;;;;5057639;28;46682;-75
2022/04/16 06:20:42;;;;;;;;;46.67;38.33;;;;;;;;5057623;28;45410;-76
2022/04/16 06:23:07;;;;;;;;;43.33;35.33;;;;;;;;5058099;28;45432;-75
2022/04/16 06:25:33;;;;;;;;;50.67;37.67;;;;;;;;5057944;28;45432;-75
2022/04/16 06:27:58;;;;;;;;;45.33;37.00;;;;;;;;5057384;28;46359;-76
2022/04/16 06:30:24;;;;;;;;;44.00;37.67;;;;;;;;5057710;28;45290;-76
2022/04/16 06:32:49;;;;;;;;;41.00;34.67;;;;;;;;5056994;28;45554;-74
2022/04/16 06:35:14;;;;;;;;;49.33;36.33;;;;;;;;5058135;28;45343;-75
2022/04/16 06:37:43;;;;;;;;;45.00;37.33;;;;;;;;5057297;28;46449;-75
2022/04/16 06:40:09;;;;;;;;;46.33;35.00;;;;;;;;5057643;28;45278;-76
2022/04/16 06:42:35;;;;;;;;;47.00;37.00;;;;;;;;5057528;28;45362;-75
2022/04/16 06:45:00;;;;;;;;;39.00;34.00;;;;;;;;5057528;28;45318;-76
2022/04/16 06:47:26;;;;;;;;;48.00;37.33;;;;;;;;5057317;28;46328;-76
2022/04/16 06:49:51;;;;;;;;;47.33;35.67;;;;;;;;5057295;28;45275;-75
2022/04/16 06:52:17;;;;;;;;;46.33;34.67;;;;;;;;5057497;28;45432;-76
2022/04/16 06:54:43;;;;;;;;;47.00;37.33;;;;;;;;5057620;28;45389;-75
2022/04/16 06:57:08;;;;;;;;;48.00;37.67;;;;;;;;5056948;28;47276;-76
2022/04/16 06:59:33;;;;;;;;;49.67;40.00;;;;;;;;5056733;28;45333;-75
2022/04/16 07:01:58;;;;;;;;;49.67;38.33;;;;;;;;5057151;28;45314;-76
2022/04/16 07:04:23;;;;;;;;;51.33;40.33;;;;;;;;5057558;28;45427;-75
2022/04/16 07:06:49;;;;;;;;;45.67;35.33;;;;;;;;5056895;28;47566;-75
2022/04/16 07:09:14;;;;;;;;;49.67;39.67;;;;;;;;5057109;28;45313;-75
2022/04/16 07:11:39;;;;;;;;;47.33;36.67;;;;;;;;5057408;28;45321;-74
2022/04/16 07:14:04;;;;;;;;;49.67;37.33;;;;;;;;5057350;28;45387;-75
2022/04/16 07:16:29;;;;;;;;;46.33;37.33;;;;;;;;5056716;28;47299;-75
2022/04/16 07:18:55;;;;;;;;;46.33;38.67;;;;;;;;5056751;28;45388;-75
2022/04/16 07:21:20;;;;;;;;;48.00;38.67;;;;;;;;5056918;28;45348;-76
2022/04/16 07:23:45;;;;;;;;;49.00;37.33;;;;;;;;5057417;28;45379;-75
2022/04/16 07:26:10;;;;;;;;;51.33;40.33;;;;;;;;5056763;28;45488;-75
2022/04/16 07:28:36;;;;;;;;;39.00;35.33;;;;;;;;5056831;28;45346;-75
2022/04/16 07:31:01;;;;;;;;;49.67;36.33;;;;;;;;5057091;28;45270;-76
2022/04/16 07:33:29;;;;;;;;;48.00;39.00;;;;;;;;5056815;28;45374;-75
2022/04/16 07:35:55;;;;;;;;;44.00;36.00;;;;;;;;5056939;28;45409;-76
2022/04/16 07:38:20;;;;;;;;;51.00;39.33;;;;;;;;5056468;28;45363;-74
2022/04/16 07:40:46;;;;;;;;;44.67;36.33;;;;;;;;5056682;28;45657;-74
2022/04/16 07:43:12;;;;;;;;;45.67;38.00;;;;;;;;5057297;28;45327;-75
2022/04/16 07:45:38;;;;;;;;;47.33;39.33;;;;;;;;5056468;28;45695;-75
2022/04/16 07:48:03;;;;;;;;;45.67;37.00;;;;;;;;5056564;28;45982;-76
2022/04/16 07:50:29;;;;;;;;;44.33;36.67;;;;;;;;5056465;28;45435;-76
2022/04/16 07:52:54;;;;;;;;;40.00;34.00;;;;;;;;5056761;28;45452;-76
2022/04/16 07:55:19;;;;;;;;;38.33;35.67;;;;;;;;5056109;28;45384;-75
2022/04/16 07:57:44;;;;;;;;;39.33;32.33;;;;;;;;5056232;28;45420;-76
2022/04/16 08:00:10;;;;;;;;;36.00;32.33;;;;;;;;5056647;28;45356;-75
2022/04/16 08:02:35;;;;;;;;;41.00;35.33;;;;;;;;5056444;28;45314;-75
2022/04/16 08:05:01;;;;;;;;;42.67;34.33;;;;;;;;5056215;28;46599;-72
2022/04/16 08:07:26;;;;;;;;;41.67;34.67;;;;;;;;5067698;27;45689;-73
2022/04/16 08:09:52;;;;;;;;;49.67;35.67;;;;;;;;5076945;28;45282;-71
2022/04/16 08:12:17;;;;;;;;;33.33;30.67;;;;;;;;5080265;28;45430;-72
2022/04/16 08:14:42;;;;;;;;;35.00;32.33;;;;;;;;5079477;28;46794;-71
2022/04/16 08:17:08;;;;;;;;;39.33;32.33;;;;;;;;5079340;28;45237;-72
2022/04/16 08:19:33;;;;;;;;;35.00;34.33;;;;;;;;5079875;28;45226;-73
2022/04/16 08:21:58;;;;;;;;;34.33;33.00;;;;;;;;5079289;28;45473;-73
2022/04/16 08:26:51;;;;;;;;;35.67;31.33;;;;;;;;5079352;28;45238;-73
2022/04/16 08:29:17;;;;;;;;;36.67;31.67;;;;;;;;5079631;28;45419;-69
2022/04/16 08:31:42;;;;;;;;;37.33;31.67;;;;;;;;5079922;28;45417;-70
2022/04/16 08:34:07;;;;;;;;;31.67;29.33;;;;;;;;5079332;28;45450;-68
2022/04/16 08:36:33;;;;;;;;;33.67;29.67;;;;;;;;5079351;28;45284;-70
2022/04/16 08:38:58;;;;;;;;;35.67;32.67;;;;;;;;5079183;28;45462;-72
2022/04/16 08:41:25;;;;;;;;;32.67;27.33;;;;;;;;5079695;28;45403;-70
2022/04/16 08:43:51;;;;;;;;;35.33;31.00;;;;;;;;5080002;28;47126;-71
2022/04/16 08:46:16;;;;;;;;;41.67;31.00;;;;;;;;5079300;28;46052;-71
2022/04/16 08:48:41;;;;;;;;;38.00;31.00;;;;;;;;5079163;28;45486;-72
2022/04/16 08:51:07;;;;;;;;;28.67;26.67;;;;;;;;5079480;28;45446;-72
2022/04/16 08:53:33;;;;;;;;;31.67;29.00;;;;;;;;5079261;28;45728;-71
2022/04/16 08:55:58;;;;;;;;;36.67;29.00;;;;;;;;5079065;28;45401;-68
2022/04/16 08:58:23;;;;;;;;;33.33;28.33;;;;;;;;5079055;28;45171;-73
2022/04/16 09:00:48;;;;;;;;;30.67;27.67;;;;;;;;5079556;28;45292;-73
2022/04/16 09:03:14;;;;;;;;;29.67;25.33;;;;;;;;5078844;28;46474;-72
2022/04/16 09:05:39;;;;;;;;;29.67;26.00;;;;;;;;5079260;28;45381;-72
2022/04/16 09:08:05;;;;;;;;;28.67;24.33;;;;;;;;5078902;28;45459;-72
2022/04/16 09:10:36;;;;;;;;;27.67;25.00;;;;;;;;5079146;28;45360;-72
2022/04/16 09:13:02;;;;;;;;;29.00;22.33;;;;;;;;5079079;28;45731;-73
2022/04/16 09:15:28;;;;;;;;;25.00;20.33;;;;;;;;5078696;28;45225;-71
2022/04/16 09:17:56;;;;;;;;;21.67;21.33;;;;;;;;5078158;28;45415;-71
2022/04/16 09:20:22;;;;;;;;;26.67;23.67;;;;;;;;5079293;28;45411;-71
2022/04/16 09:22:48;;;;;;;;;23.00;19.00;;;;;;;;5078374;28;46224;-72
2022/04/16 09:25:18;;;;;;;;;22.00;20.33;;;;;;;;5076462;27;45486;-72
2022/04/16 09:27:46;;;;;;;;;24.33;21.00;;;;;;;;5078753;28;45426;-73
2022/04/16 09:30:11;;;;;;;;;19.00;18.67;;;;;;;;5078890;28;45249;-74
2022/04/16 09:32:44;;;;;;;;;23.33;19.00;;;;;;;;5078483;28;45659;-73
2022/04/16 09:35:21;;;;;;;;;17.00;15.00;;;;;;;;5078352;28;45485;-73
2022/04/16 09:37:56;;;;;;;;;17.67;15.00;;;;;;;;5078382;28;45343;-74
2022/04/16 09:40:23;;;;;;;;;20.33;19.67;;;;;;;;5077891;28;45304;-70
2022/04/16 09:42:52;;;;;;;;;21.00;15.67;;;;;;;;5078257;28;46416;-72
2022/04/16 09:45:17;;;;;;;;;24.67;19.33;;;;;;;;5078314;28;45300;-72
2022/04/16 09:47:46;;;;;;;;;21.33;16.67;;;;;;;;5078253;28;45406;-72
2022/04/16 09:50:11;;;;;;;;;19.33;16.33;;;;;;;;5078762;28;45260;-72
2022/04/16 09:52:38;;;;;;;;;14.00;12.67;;;;;;;;5078096;28;47129;-72
2022/04/16 09:55:03;;;;;;;;;16.33;15.00;;;;;;;;5084096;27;45447;-71
2022/04/16 09:57:33;;;;;;;;;19.00;15.67;;;;;;;;5077876;28;45577;-72
2022/04/16 10:00:02;;;;;;;;;14.33;14.33;;;;;;;;5078219;28;45431;-72
2022/04/16 10:02:28;;;;;;;;;9.33;9.33;;;;;;;;5093508;27;46654;-71
2022/04/16 10:04:53;;;;;;;;;16.00;13.00;;;;;;;;5096129;27;45354;-72
2022/04/16 10:07:18;;;;;;;;;12.00;12.00;;;;;;;;5078348;28;45448;-72
2022/04/16 10:09:45;;;;;;;;;14.67;12.00;;;;;;;;5078569;28;45295;-72
2022/04/16 10:15:01;;;;;;;;;16.67;16.67;;;;;;;;5078059;28;45418;-72
2022/04/16 10:17:39;;;;;;;;;10.00;10.00;;;;;;;;5077631;28;45161;-71
2022/04/16 10:20:09;;;;;;;;;11.00;11.00;;;;;;;;5076154;28;45710;-70
2022/04/16 10:22:34;;;;;;;;;5.33;5.33;;;;;;;;5076082;28;47050;-70
2022/04/16 10:25:00;;;;;;;;;15.33;13.00;;;;;;;;5076183;28;45549;-66
2022/04/16 10:27:26;;;;;;;;;8.67;8.67;;;;;;;;5076360;28;45367;-66
2022/04/16 10:29:52;;;;;;;;;13.33;12.33;;;;;;;;5076544;28;45521;-66
2022/04/16 10:32:18;;;;;;;;;10.67;10.67;;;;;;;;5075974;28;45796;-66
2022/04/16 10:34:44;;;;;;;;;11.67;11.33;;;;;;;;5077043;28;45332;-66
2022/04/16 10:37:24;;;;;;;;;8.33;8.33;;;;;;;;5078040;28;45331;-66
2022/04/16 10:39:53;;;;;;;;;9.00;9.00;;;;;;;;5078059;28;45445;-66
2022/04/16 10:42:28;;;;;;;;;11.00;11.00;;;;;;;;5077435;28;46270;-66
2022/04/16 10:44:54;;;;;;;;;14.33;13.00;;;;;;;;5077501;28;45855;-66
2022/04/16 10:47:19;;;;;;;;;15.67;12.67;;;;;;;;5077648;28;45364;-66
2022/04/16 10:49:44;;;;;;;;;12.00;11.00;;;;;;;;5077572;28;45314;-66
2022/04/16 10:52:19;;;;;;;;;9.67;9.67;;;;;;;;5077179;28;46247;-67
2022/04/16 10:54:47;;;;;;;;;11.33;10.00;;;;;;;;5077516;28;45420;-69
2022/04/16 10:57:19;;;;;;;;;9.33;9.33;;;;;;;;5077065;27;45323;-67
2022/04/16 10:59:45;;;;;;;;;12.00;12.00;;;;;;;;5077638;28;45397;-69
2022/04/16 11:02:19;;;;;;;;;9.67;9.67;;;;;;;;5077462;28;46355;-67
2022/04/16 11:05:14;;;;;;;;;11.67;10.67;;;;;;;;5077357;28;45374;-67
2022/04/16 11:07:40;;;;;;;;;12.33;12.00;;;;;;;;5015068;28;45290;-67
2022/04/16 11:10:09;;;;;;;;;11.00;8.00;;;;;;;;5015075;28;45400;-67
2022/04/16 11:12:37;;;;;;;;;12.00;10.33;;;;;;;;5014950;28;45395;-67
2022/04/16 11:15:06;;;;;;;;;13.00;13.00;;;;;;;;5015158;28;45930;-68
2022/04/16 11:17:32;;;;;;;;;15.33;12.33;;;;;;;;5013246;28;45565;-68
2022/04/16 11:20:01;;;;;;;;;12.67;11.67;;;;;;;;5014281;28;45433;-68
2022/04/16 11:22:26;;;;;;;;;11.00;10.00;;;;;;;;5014080;28;46235;-67
2022/04/16 11:24:51;;;;;;;;;10.00;9.00;;;;;;;;5015520;28;45461;-67
2022/04/16 11:36:00;;;;;;;;;9.33;8.33;;;;;;;;5032484;28;45441;-68
2022/04/16 11:38:29;;;;;;;;;9.00;9.00;;;;;;;;5033859;28;45436;-68
2022/04/16 11:40:55;;;;;;;;;12.67;10.00;;;;;;;;5034127;28;45480;-68
2022/04/16 11:43:22;;;;;;;;;9.33;9.00;;;;;;;;5035671;28;46675;-68
2022/04/16 11:45:48;;;;;;;;;9.67;8.67;;;;;;;;5079616;28;45394;-68
2022/04/16 11:48:15;;;;;;;;;8.33;8.33;;;;;;;;5079916;28;45345;-68
2022/04/16 11:50:40;;;;;;;;;12.33;10.00;;;;;;;;5079876;28;45163;-68
2022/04/16 11:53:05;;;;;;;;;7.67;7.00;;;;;;;;5079857;28;46497;-68
2022/04/16 11:55:30;;;;;;;;;5.33;5.00;;;;;;;;5079840;28;45348;-68
2022/04/16 11:57:56;;;;;;;;;6.00;4.00;;;;;;;;5079897;28;45363;-67
2022/04/16 12:00:22;;;;;;;;;5.00;5.00;;;;;;;;5079784;28;45511;-68
2022/04/16 12:02:53;;;;;;;;;6.00;5.00;;;;;;;;5079539;28;47142;-68
2022/04/16 12:05:24;;;;;;;;;7.00;5.33;;;;;;;;5079537;28;45284;-68
2022/04/16 12:07:49;;;;;;;;;7.33;6.33;;;;;;;;5079551;28;45534;-69
2022/04/16 12:10:16;;;;;;;;;3.67;3.67;;;;;;;;5079207;28;45428;-69
2022/04/16 12:12:47;;;;;;;;;4.67;4.67;;;;;;;;5079150;28;45303;-68
2022/04/16 12:15:18;;;;;;;;;4.33;4.33;;;;;;;;5078472;28;45317;-68
2022/04/16 12:17:43;;;;;;;;;5.00;5.00;;;;;;;;5079478;28;45320;-67
2022/04/16 12:20:10;;;;;;;;;8.33;7.33;;;;;;;;5079301;28;45387;-68
2022/04/16 12:22:47;;;;;;;;;9.00;6.67;;;;;;;;5079015;28;46699;-68
2022/04/16 12:25:13;;;;;;;;;5.67;5.67;;;;;;;;5077915;28;45384;-68
2022/04/16 12:27:43;;;;;;;;;14.00;12.67;;;;;;;;5079304;28;45524;-68
2022/04/16 12:30:08;;;;;;;;;9.00;7.33;;;;;;;;5079347;28;45466;-68
2022/04/16 12:32:34;;;;;;;;;9.67;8.67;;;;;;;;5079142;28;46090;-68
2022/04/16 12:34:59;;;;;;;;;5.00;5.00;;;;;;;;5078550;28;45399;-68
2022/04/16 12:37:24;;;;;;;;;7.33;7.00;;;;;;;;5078578;27;45501;-69
2022/04/16 12:39:50;;;;;;;;;9.00;7.00;;;;;;;;5089550;27;45503;-69
2022/04/16 12:42:15;;;;;;;;;10.33;7.33;;;;;;;;5099657;27;46983;-69
2022/04/16 12:44:40;;;;;;;;;8.00;8.00;;;;;;;;5060400;28;45500;-68
2022/04/16 12:47:06;;;;;;;;;6.33;6.33;;;;;;;;5078561;28;45598;-69
2022/04/16 12:49:32;;;;;;;;;15.33;10.67;;;;;;;;5078459;28;45546;-69
2022/04/16 12:51:58;;;;;;;;;11.33;9.67;;;;;;;;5078874;28;47208;-69
2022/04/16 12:54:23;;;;;;;;;9.00;9.00;;;;;;;;5078946;28;45456;-69
2022/04/16 12:56:49;;;;;;;;;9.67;9.67;;;;;;;;5061595;28;45444;-68
2022/04/16 12:59:14;;;;;;;;;9.00;9.00;;;;;;;;5075318;28;45478;-69
2022/04/16 13:01:39;;;;;;;;;6.67;6.67;;;;;;;;5040600;28;46348;-68
2022/04/16 13:04:04;;;;;;;;;9.33;7.67;;;;;;;;5058845;28;45789;-70
2022/04/16 13:06:30;;;;;;;;;7.67;6.33;;;;;;;;5078268;28;45388;-69
2022/04/16 13:08:56;;;;;;;;;7.33;7.00;;;;;;;;5063377;28;45458;-68
2022/04/16 13:11:21;;;;;;;;;7.67;6.00;;;;;;;;5065979;28;46654;-68
2022/04/16 13:13:47;;;;;;;;;10.33;7.67;;;;;;;;5058301;28;45336;-68
2022/04/16 13:16:13;;;;;;;;;7.67;5.67;;;;;;;;5058242;28;45330;-67
2022/04/16 13:18:38;;;;;;;;;4.33;4.00;;;;;;;;5074522;28;45389;-67
2022/04/16 13:21:07;;;;;;;;;6.67;6.67;;;;;;;;5072430;28;45391;-66
2022/04/16 13:23:35;;;;;;;;;4.00;2.67;;;;;;;;5078273;28;45377;-67
2022/04/16 13:26:00;;;;;;;;;7.00;5.33;;;;;;;;5078232;28;45452;-67
2022/04/16 13:28:29;;;;;;;;;9.67;7.00;;;;;;;;5077993;28;45443;-67
2022/04/16 13:30:55;;;;;;;;;8.33;6.33;;;;;;;;5062959;28;46993;-66
2022/04/16 13:33:20;;;;;;;;;7.00;7.00;;;;;;;;5060747;28;46058;-67
2022/04/16 13:35:46;;;;;;;;;6.00;5.00;;;;;;;;5058278;28;45365;-68
2022/04/16 13:38:11;;;;;;;;;6.00;5.00;;;;;;;;5078505;28;45349;-68
2022/04/16 13:43:20;;;;;;;;;7.67;4.00;;;;;;;;5077989;28;45416;-67
2022/04/16 13:45:45;;;;;;;;;8.33;7.00;;;;;;;;5077980;28;45405;-68
2022/04/16 13:48:11;;;;;;;;;6.33;6.33;;;;;;;;5070043;28;45494;-67
2022/04/16 13:50:36;;;;;;;;;7.67;7.00;;;;;;;;5068625;28;46349;-68
2022/04/16 13:53:01;;;;;;;;;6.00;6.00;;;;;;;;5059933;28;45362;-69
2022/04/16 13:55:27;;;;;;;;;6.33;5.00;;;;;;;;5071646;28;45444;-68
2022/04/16 13:57:52;;;;;;;;;8.00;6.67;;;;;;;;5077500;28;45447;-68
2022/04/16 14:00:17;;;;;;;;;6.33;6.00;;;;;;;;5075338;28;45565;-68
2022/04/16 14:02:43;;;;;;;;;7.00;5.33;;;;;;;;5078978;27;45469;-69
2022/04/16 14:07:52;;;;;;;;;5.33;5.33;;;;;;;;5076866;28;45322;-68
2022/04/16 14:10:17;;;;;;;;;6.00;6.00;;;;;;;;5077623;28;45872;-68
2022/04/16 14:12:45;;;;;;;;;8.00;6.67;;;;;;;;5081696;27;45642;-67
2022/04/16 14:15:10;;;;;;;;;8.00;6.67;;;;;;;;5059350;28;45382;-68
2022/04/16 14:17:36;;;;;;;;;6.33;6.00;;;;;;;;5077480;28;45302;-67
2022/04/16 14:20:01;;;;;;;;;7.67;7.67;;;;;;;;5081039;27;46542;-67
2022/04/16 14:22:26;;;;;;;;;4.67;4.00;;;;;;;;5083615;27;45465;-67
2022/04/16 14:24:51;;;;;;;;;6.33;6.33;;;;;;;;5077082;28;45429;-66
2022/04/16 14:27:17;;;;;;;;;3.33;3.33;;;;;;;;5077283;28;45477;-71
2022/04/16 14:29:43;;;;;;;;;8.33;8.00;;;;;;;;5076483;28;45495;-68
2022/04/16 14:32:08;;;;;;;;;9.00;7.00;;;;;;;;5077248;27;45504;-66
2022/04/16 14:34:33;;;;;;;;;5.67;5.67;;;;;;;;5076179;28;45289;-67
2022/04/16 14:36:59;;;;;;;;;6.33;6.00;;;;;;;;5077062;28;45443;-67
2022/04/16 14:39:27;;;;;;;;;10.00;6.00;;;;;;;;5076586;27;45305;-68
2022/04/16 14:41:52;;;;;;;;;8.00;7.00;;;;;;;;5076975;28;45667;-67
2022/04/16 14:44:18;;;;;;;;;8.00;7.00;;;;;;;;5076983;28;45432;-68
2022/04/16 14:46:43;;;;;;;;;8.00;8.00;;;;;;;;5077226;28;45428;-72
2022/04/16 14:49:10;;;;;;;;;7.67;6.00;;;;;;;;5076406;28;45881;-69
2022/04/16 14:51:39;;;;;;;;;6.00;6.00;;;;;;;;5076395;27;45562;-68